sensor_id;sensor_type;location;lat;lon;timestamp;P1;durP1;ratioP1;P2;durP2;ratioP2
12232;SDS011;6179;51.748;8.728;2023-05-07T00:03:32;13.37;;;4.23;;
12232;SDS011;6179;51.748;8.728;2023-05-07T00:09:33;7.30;;;5.53;;
12232;SDS011;6179;51.748;8.728;2023-05-07T00:15:33;10.50;;;5.83;;
12232;SDS011;6179;51.748;8.728;2023-05-07T00:21:34;10.60;;;5.90;;
12232;SDS011;6179;51.748;8.728;2023-05-07T00:27:35;12.20;;;8.10;;
12232;SDS011;6179;51.748;8.728;2023-05-07T00:33:36;16.70;;;8.47;;
12232;SDS011;6179;51.748;8.728;2023-05-07T00:39:37;19.27;;;7.83;;
12232;SDS011;6179;51.748;8.728;2023-05-07T00:45:38;15.17;;;8.07;;
12232;SDS011;6179;51.748;8.728;2023-05-07T00:51:39;13.30;;;8.70;;
12232;SDS011;6179;51.748;8.728;2023-05-07T00:57:40;20.30;;;8.80;;
12232;SDS011;6179;51.748;8.728;2023-05-07T01:03:41;13.00;;;8.17;;
12232;SDS011;6179;51.748;8.728;2023-05-07T01:09:42;36.90;;;11.77;;
12232;SDS011;6179;51.748;8.728;2023-05-07T01:15:43;17.10;;;10.30;;
12232;SDS011;6179;51.748;8.728;2023-05-07T01:21:45;19.43;;;9.40;;
12232;SDS011;6179;51.748;8.728;2023-05-07T01:27:47;14.20;;;8.67;;
12232;SDS011;6179;51.748;8.728;2023-05-07T01:33:48;16.17;;;9.50;;
12232;SDS011;6179;51.748;8.728;2023-05-07T01:39:50;22.93;;;11.70;;
12232;SDS011;6179;51.748;8.728;2023-05-07T01:45:53;18.07;;;10.50;;
12232;SDS011;6179;51.748;8.728;2023-05-07T01:51:54;24.37;;;11.70;;
12232;SDS011;6179;51.748;8.728;2023-05-07T01:57:55;21.40;;;11.03;;
12232;SDS011;6179;51.748;8.728;2023-05-07T02:03:56;26.87;;;13.10;;
12232;SDS011;6179;51.748;8.728;2023-05-07T02:09:57;20.43;;;12.60;;
12232;SDS011;6179;51.748;8.728;2023-05-07T02:15:57;24.13;;;13.33;;
12232;SDS011;6179;51.748;8.728;2023-05-07T02:21:58;24.70;;;12.07;;
12232;SDS011;6179;51.748;8.728;2023-05-07T02:27:58;20.80;;;9.80;;
12232;SDS011;6179;51.748;8.728;2023-05-07T02:34:00;20.97;;;11.90;;
12232;SDS011;6179;51.748;8.728;2023-05-07T02:40:00;22.73;;;11.67;;
12232;SDS011;6179;51.748;8.728;2023-05-07T02:46:04;22.67;;;11.87;;
12232;SDS011;6179;51.748;8.728;2023-05-07T02:52:07;27.13;;;10.33;;
12232;SDS011;6179;51.748;8.728;2023-05-07T02:58:08;20.30;;;11.40;;
12232;SDS011;6179;51.748;8.728;2023-05-07T03:04:09;33.40;;;15.73;;
12232;SDS011;6179;51.748;8.728;2023-05-07T03:10:10;23.70;;;11.90;;
12232;SDS011;6179;51.748;8.728;2023-05-07T03:16:11;22.93;;;12.50;;
12232;SDS011;6179;51.748;8.728;2023-05-07T03:22:11;22.83;;;11.40;;
12232;SDS011;6179;51.748;8.728;2023-05-07T03:28:12;19.10;;;11.77;;
12232;SDS011;6179;51.748;8.728;2023-05-07T03:34:13;24.60;;;11.03;;
12232;SDS011;6179;51.748;8.728;2023-05-07T03:40:13;26.47;;;11.93;;
12232;SDS011;6179;51.748;8.728;2023-05-07T03:46:14;25.67;;;12.90;;
12232;SDS011;6179;51.748;8.728;2023-05-07T03:52:14;22.03;;;13.70;;
12232;SDS011;6179;51.748;8.728;2023-05-07T03:58:15;27.13;;;11.80;;
12232;SDS011;6179;51.748;8.728;2023-05-07T04:04:16;24.53;;;12.83;;
12232;SDS011;6179;51.748;8.728;2023-05-07T04:10:17;26.33;;;13.40;;
12232;SDS011;6179;51.748;8.728;2023-05-07T04:16:18;33.57;;;16.00;;
12232;SDS011;6179;51.748;8.728;2023-05-07T04:22:19;29.33;;;14.17;;
12232;SDS011;6179;51.748;8.728;2023-05-07T04:28:19;27.20;;;13.10;;
12232;SDS011;6179;51.748;8.728;2023-05-07T04:34:20;32.90;;;11.90;;
12232;SDS011;6179;51.748;8.728;2023-05-07T04:40:21;32.73;;;15.20;;
12232;SDS011;6179;51.748;8.728;2023-05-07T04:46:22;36.30;;;14.63;;
12232;SDS011;6179;51.748;8.728;2023-05-07T04:52:24;29.80;;;14.30;;
12232;SDS011;6179;51.748;8.728;2023-05-07T04:58:24;33.33;;;16.23;;
12232;SDS011;6179;51.748;8.728;2023-05-07T05:04:25;28.13;;;14.27;;
12232;SDS011;6179;51.748;8.728;2023-05-07T05:10:26;29.40;;;14.97;;
12232;SDS011;6179;51.748;8.728;2023-05-07T05:16:26;40.73;;;15.30;;
12232;SDS011;6179;51.748;8.728;2023-05-07T05:22:27;32.77;;;13.00;;
12232;SDS011;6179;51.748;8.728;2023-05-07T05:28:29;23.50;;;12.17;;
12232;SDS011;6179;51.748;8.728;2023-05-07T05:34:30;26.23;;;12.40;;
12232;SDS011;6179;51.748;8.728;2023-05-07T05:40:33;23.27;;;11.83;;
12232;SDS011;6179;51.748;8.728;2023-05-07T05:46:33;23.67;;;12.10;;
12232;SDS011;6179;51.748;8.728;2023-05-07T05:52:35;27.70;;;13.43;;
12232;SDS011;6179;51.748;8.728;2023-05-07T05:58:36;43.33;;;13.97;;
12232;SDS011;6179;51.748;8.728;2023-05-07T06:04:36;25.83;;;12.43;;
12232;SDS011;6179;51.748;8.728;2023-05-07T06:10:37;25.00;;;11.00;;
12232;SDS011;6179;51.748;8.728;2023-05-07T06:16:38;26.07;;;11.73;;
12232;SDS011;6179;51.748;8.728;2023-05-07T06:22:38;20.53;;;11.00;;
12232;SDS011;6179;51.748;8.728;2023-05-07T06:28:39;20.53;;;9.93;;
12232;SDS011;6179;51.748;8.728;2023-05-07T06:34:40;18.70;;;11.00;;
12232;SDS011;6179;51.748;8.728;2023-05-07T06:40:41;22.33;;;11.00;;
12232;SDS011;6179;51.748;8.728;2023-05-07T06:46:41;24.30;;;9.70;;
12232;SDS011;6179;51.748;8.728;2023-05-07T06:52:42;15.83;;;8.37;;
12232;SDS011;6179;51.748;8.728;2023-05-07T06:58:43;17.40;;;9.13;;
12232;SDS011;6179;51.748;8.728;2023-05-07T07:04:43;19.40;;;9.37;;
12232;SDS011;6179;51.748;8.728;2023-05-07T07:10:46;16.27;;;9.07;;
12232;SDS011;6179;51.748;8.728;2023-05-07T07:16:47;19.03;;;7.97;;
12232;SDS011;6179;51.748;8.728;2023-05-07T07:22:47;15.07;;;8.07;;
12232;SDS011;6179;51.748;8.728;2023-05-07T07:28:48;14.10;;;8.13;;
12232;SDS011;6179;51.748;8.728;2023-05-07T07:34:49;14.30;;;7.97;;
12232;SDS011;6179;51.748;8.728;2023-05-07T07:40:50;12.60;;;6.60;;
12232;SDS011;6179;51.748;8.728;2023-05-07T07:46:50;13.40;;;7.93;;
12232;SDS011;6179;51.748;8.728;2023-05-07T07:52:51;14.30;;;7.23;;
12232;SDS011;6179;51.748;8.728;2023-05-07T07:58:52;11.27;;;6.43;;
12232;SDS011;6179;51.748;8.728;2023-05-07T08:04:52;10.63;;;6.43;;
12232;SDS011;6179;51.748;8.728;2023-05-07T08:10:53;13.47;;;6.47;;
12232;SDS011;6179;51.748;8.728;2023-05-07T08:16:54;11.00;;;5.83;;
12232;SDS011;6179;51.748;8.728;2023-05-07T08:22:54;16.57;;;6.03;;
12232;SDS011;6179;51.748;8.728;2023-05-07T08:28:55;10.17;;;6.37;;
12232;SDS011;6179;51.748;8.728;2023-05-07T08:34:56;12.47;;;6.00;;
12232;SDS011;6179;51.748;8.728;2023-05-07T08:40:56;13.73;;;5.40;;
12232;SDS011;6179;51.748;8.728;2023-05-07T08:46:57;14.80;;;6.80;;
12232;SDS011;6179;51.748;8.728;2023-05-07T08:53:00;9.37;;;6.10;;
12232;SDS011;6179;51.748;8.728;2023-05-07T08:59:02;13.87;;;6.83;;
12232;SDS011;6179;51.748;8.728;2023-05-07T09:05:03;11.20;;;5.17;;
12232;SDS011;6179;51.748;8.728;2023-05-07T09:11:04;10.70;;;6.03;;
12232;SDS011;6179;51.748;8.728;2023-05-07T09:17:05;8.80;;;5.20;;
12232;SDS011;6179;51.748;8.728;2023-05-07T09:23:09;13.43;;;5.20;;
12232;SDS011;6179;51.748;8.728;2023-05-07T09:29:09;13.27;;;6.23;;
12232;SDS011;6179;51.748;8.728;2023-05-07T09:35:16;8.00;;;5.30;;
12232;SDS011;6179;51.748;8.728;2023-05-07T09:41:18;11.73;;;6.33;;
12232;SDS011;6179;51.748;8.728;2023-05-07T09:47:19;10.57;;;5.40;;
12232;SDS011;6179;51.748;8.728;2023-05-07T09:53:23;12.30;;;5.33;;
12232;SDS011;6179;51.748;8.728;2023-05-07T09:59:25;15.13;;;6.57;;
12232;SDS011;6179;51.748;8.728;2023-05-07T10:05:27;16.93;;;5.90;;
12232;SDS011;6179;51.748;8.728;2023-05-07T10:11:28;8.73;;;4.63;;
12232;SDS011;6179;51.748;8.728;2023-05-07T10:17:29;13.17;;;5.30;;
12232;SDS011;6179;51.748;8.728;2023-05-07T10:23:30;7.73;;;4.97;;
12232;SDS011;6179;51.748;8.728;2023-05-07T10:35:39;13.30;;;5.10;;
12232;SDS011;6179;51.748;8.728;2023-05-07T10:41:41;8.80;;;5.40;;
12232;SDS011;6179;51.748;8.728;2023-05-07T11:06:25;12.03;;;4.87;;
12232;SDS011;6179;51.748;8.728;2023-05-07T11:18:47;7.77;;;4.67;;
12232;SDS011;6179;51.748;8.728;2023-05-07T11:24:52;5.50;;;3.83;;
12232;SDS011;6179;51.748;8.728;2023-05-07T11:30:53;8.77;;;3.67;;
12232;SDS011;6179;51.748;8.728;2023-05-07T11:36:54;7.13;;;2.87;;
12232;SDS011;6179;51.748;8.728;2023-05-07T11:42:55;7.67;;;4.40;;
12232;SDS011;6179;51.748;8.728;2023-05-07T11:48:56;8.73;;;3.80;;
12232;SDS011;6179;51.748;8.728;2023-05-07T11:54:57;7.40;;;2.93;;
12232;SDS011;6179;51.748;8.728;2023-05-07T12:00:59;3.33;;;2.23;;
12232;SDS011;6179;51.748;8.728;2023-05-07T12:07:00;3.90;;;2.97;;
12232;SDS011;6179;51.748;8.728;2023-05-07T12:13:01;2.67;;;1.50;;
12232;SDS011;6179;51.748;8.728;2023-05-07T12:19:01;4.00;;;2.70;;
12232;SDS011;6179;51.748;8.728;2023-05-07T12:25:02;5.80;;;1.90;;
12232;SDS011;6179;51.748;8.728;2023-05-07T12:31:03;4.07;;;2.63;;
12232;SDS011;6179;51.748;8.728;2023-05-07T12:37:04;3.73;;;2.70;;
12232;SDS011;6179;51.748;8.728;2023-05-07T12:43:04;2.50;;;2.30;;
12232;SDS011;6179;51.748;8.728;2023-05-07T12:49:05;2.13;;;1.83;;
12232;SDS011;6179;51.748;8.728;2023-05-07T12:55:06;2.53;;;2.23;;
12232;SDS011;6179;51.748;8.728;2023-05-07T13:01:08;3.97;;;1.97;;
12232;SDS011;6179;51.748;8.728;2023-05-07T13:07:09;2.10;;;1.73;;
12232;SDS011;6179;51.748;8.728;2023-05-07T13:13:10;3.40;;;3.07;;
12232;SDS011;6179;51.748;8.728;2023-05-07T13:19:10;4.70;;;3.30;;
12232;SDS011;6179;51.748;8.728;2023-05-07T13:25:11;4.70;;;3.13;;
12232;SDS011;6179;51.748;8.728;2023-05-07T13:31:11;2.40;;;1.80;;
12232;SDS011;6179;51.748;8.728;2023-05-07T13:37:12;3.17;;;2.70;;
12232;SDS011;6179;51.748;8.728;2023-05-07T13:43:13;4.00;;;3.00;;
12232;SDS011;6179;51.748;8.728;2023-05-07T13:49:14;7.50;;;4.60;;
12232;SDS011;6179;51.748;8.728;2023-05-07T13:55:15;8.53;;;4.03;;
12232;SDS011;6179;51.748;8.728;2023-05-07T14:01:19;10.30;;;4.53;;
12232;SDS011;6179;51.748;8.728;2023-05-07T14:07:19;8.63;;;4.37;;
12232;SDS011;6179;51.748;8.728;2023-05-07T14:13:20;12.63;;;6.70;;
12232;SDS011;6179;51.748;8.728;2023-05-07T14:19:20;9.33;;;6.70;;
12232;SDS011;6179;51.748;8.728;2023-05-07T14:25:22;6.87;;;4.77;;
12232;SDS011;6179;51.748;8.728;2023-05-07T14:31:23;8.00;;;5.17;;
12232;SDS011;6179;51.748;8.728;2023-05-07T14:37:24;7.80;;;4.57;;
12232;SDS011;6179;51.748;8.728;2023-05-07T14:43:25;7.50;;;4.60;;
12232;SDS011;6179;51.748;8.728;2023-05-07T14:49:25;7.80;;;5.27;;
12232;SDS011;6179;51.748;8.728;2023-05-07T14:55:26;9.33;;;6.13;;
12232;SDS011;6179;51.748;8.728;2023-05-07T15:01:26;9.20;;;5.70;;
12232;SDS011;6179;51.748;8.728;2023-05-07T15:07:27;17.20;;;6.97;;
12232;SDS011;6179;51.748;8.728;2023-05-07T15:13:28;8.90;;;6.77;;
12232;SDS011;6179;51.748;8.728;2023-05-07T15:19:28;9.10;;;6.70;;
12232;SDS011;6179;51.748;8.728;2023-05-07T15:25:29;10.97;;;7.20;;
12232;SDS011;6179;51.748;8.728;2023-05-07T15:31:31;8.80;;;5.30;;
12232;SDS011;6179;51.748;8.728;2023-05-07T15:37:32;7.37;;;5.17;;
12232;SDS011;6179;51.748;8.728;2023-05-07T15:43:32;10.50;;;6.30;;
12232;SDS011;6179;51.748;8.728;2023-05-07T15:49:33;11.77;;;6.17;;
12232;SDS011;6179;51.748;8.728;2023-05-07T15:55:34;9.30;;;6.83;;
12232;SDS011;6179;51.748;8.728;2023-05-07T16:01:34;7.43;;;5.07;;
12232;SDS011;6179;51.748;8.728;2023-05-07T16:07:36;12.93;;;5.40;;
12232;SDS011;6179;51.748;8.728;2023-05-07T16:13:36;7.43;;;6.03;;
12232;SDS011;6179;51.748;8.728;2023-05-07T16:19:37;8.37;;;5.47;;
12232;SDS011;6179;51.748;8.728;2023-05-07T16:25:37;9.60;;;5.90;;
12232;SDS011;6179;51.748;8.728;2023-05-07T16:31:38;16.57;;;5.90;;
12232;SDS011;6179;51.748;8.728;2023-05-07T16:37:39;11.50;;;7.00;;
12232;SDS011;6179;51.748;8.728;2023-05-07T16:43:40;9.70;;;6.30;;
12232;SDS011;6179;51.748;8.728;2023-05-07T16:49:41;7.67;;;4.77;;
12232;SDS011;6179;51.748;8.728;2023-05-07T16:55:41;16.30;;;7.27;;
12232;SDS011;6179;51.748;8.728;2023-05-07T17:01:42;7.83;;;3.90;;
12232;SDS011;6179;51.748;8.728;2023-05-07T17:07:43;10.60;;;6.13;;
12232;SDS011;6179;51.748;8.728;2023-05-07T17:13:43;8.77;;;5.90;;
12232;SDS011;6179;51.748;8.728;2023-05-07T17:19:44;10.00;;;5.70;;
12232;SDS011;6179;51.748;8.728;2023-05-07T17:25:45;9.93;;;6.40;;
12232;SDS011;6179;51.748;8.728;2023-05-07T17:31:45;13.90;;;7.47;;
12232;SDS011;6179;51.748;8.728;2023-05-07T17:37:46;8.30;;;5.37;;
12232;SDS011;6179;51.748;8.728;2023-05-07T17:43:51;7.77;;;5.33;;
12232;SDS011;6179;51.748;8.728;2023-05-07T17:49:52;17.63;;;6.80;;
12232;SDS011;6179;51.748;8.728;2023-05-07T17:55:52;10.77;;;5.93;;
12232;SDS011;6179;51.748;8.728;2023-05-07T18:01:53;11.47;;;6.50;;
12232;SDS011;6179;51.748;8.728;2023-05-07T18:07:54;9.97;;;7.47;;
12232;SDS011;6179;51.748;8.728;2023-05-07T18:13:55;7.23;;;5.50;;
12232;SDS011;6179;51.748;8.728;2023-05-07T18:19:55;9.80;;;6.00;;
12232;SDS011;6179;51.748;8.728;2023-05-07T18:25:56;5.10;;;4.60;;
12232;SDS011;6179;51.748;8.728;2023-05-07T18:31:57;6.00;;;4.87;;
12232;SDS011;6179;51.748;8.728;2023-05-07T18:37:58;4.87;;;4.10;;
12232;SDS011;6179;51.748;8.728;2023-05-07T18:43:58;8.60;;;5.10;;
12232;SDS011;6179;51.748;8.728;2023-05-07T18:49:59;12.23;;;5.37;;
12232;SDS011;6179;51.748;8.728;2023-05-07T18:56:00;7.20;;;5.10;;
12232;SDS011;6179;51.748;8.728;2023-05-07T19:02:00;6.63;;;4.50;;
12232;SDS011;6179;51.748;8.728;2023-05-07T19:08:01;5.10;;;4.47;;
12232;SDS011;6179;51.748;8.728;2023-05-07T19:14:02;9.40;;;5.30;;
12232;SDS011;6179;51.748;8.728;2023-05-07T19:20:02;6.90;;;5.50;;
12232;SDS011;6179;51.748;8.728;2023-05-07T19:26:04;7.63;;;4.93;;
12232;SDS011;6179;51.748;8.728;2023-05-07T19:32:05;6.57;;;5.90;;
12232;SDS011;6179;51.748;8.728;2023-05-07T19:38:05;7.17;;;5.70;;
12232;SDS011;6179;51.748;8.728;2023-05-07T19:44:07;6.57;;;5.77;;
12232;SDS011;6179;51.748;8.728;2023-05-07T19:50:07;5.87;;;4.50;;
12232;SDS011;6179;51.748;8.728;2023-05-07T19:56:09;7.67;;;5.97;;
12232;SDS011;6179;51.748;8.728;2023-05-07T20:02:10;6.07;;;4.50;;
12232;SDS011;6179;51.748;8.728;2023-05-07T20:08:11;8.57;;;4.83;;
12232;SDS011;6179;51.748;8.728;2023-05-07T20:14:11;5.83;;;3.83;;
12232;SDS011;6179;51.748;8.728;2023-05-07T20:20:12;4.77;;;4.20;;
12232;SDS011;6179;51.748;8.728;2023-05-07T20:26:13;8.13;;;5.37;;
12232;SDS011;6179;51.748;8.728;2023-05-07T20:32:13;10.53;;;3.87;;
12232;SDS011;6179;51.748;8.728;2023-05-07T20:38:14;7.60;;;4.30;;
12232;SDS011;6179;51.748;8.728;2023-05-07T20:44:15;6.50;;;3.90;;
12232;SDS011;6179;51.748;8.728;2023-05-07T20:50:16;6.83;;;3.97;;
12232;SDS011;6179;51.748;8.728;2023-05-07T20:56:16;6.23;;;3.90;;
12232;SDS011;6179;51.748;8.728;2023-05-07T21:02:17;6.50;;;4.63;;
12232;SDS011;6179;51.748;8.728;2023-05-07T21:08:18;5.57;;;4.03;;
12232;SDS011;6179;51.748;8.728;2023-05-07T21:14:19;6.67;;;4.43;;
12232;SDS011;6179;51.748;8.728;2023-05-07T21:20:19;8.50;;;4.57;;
12232;SDS011;6179;51.748;8.728;2023-05-07T21:26:20;24.03;;;5.07;;
12232;SDS011;6179;51.748;8.728;2023-05-07T21:32:21;7.37;;;3.63;;
12232;SDS011;6179;51.748;8.728;2023-05-07T21:38:22;6.13;;;4.40;;
12232;SDS011;6179;51.748;8.728;2023-05-07T21:44:22;7.40;;;4.30;;
12232;SDS011;6179;51.748;8.728;2023-05-07T21:50:23;6.97;;;4.27;;
12232;SDS011;6179;51.748;8.728;2023-05-07T21:56:24;11.90;;;5.27;;
12232;SDS011;6179;51.748;8.728;2023-05-07T22:02:24;3.57;;;2.97;;
12232;SDS011;6179;51.748;8.728;2023-05-07T22:08:25;5.90;;;4.10;;
12232;SDS011;6179;51.748;8.728;2023-05-07T22:14:25;4.70;;;2.93;;
12232;SDS011;6179;51.748;8.728;2023-05-07T22:20:26;5.50;;;3.67;;
12232;SDS011;6179;51.748;8.728;2023-05-07T22:26:27;6.37;;;3.57;;
12232;SDS011;6179;51.748;8.728;2023-05-07T22:32:27;5.23;;;3.70;;
12232;SDS011;6179;51.748;8.728;2023-05-07T22:38:28;4.93;;;4.30;;
12232;SDS011;6179;51.748;8.728;2023-05-07T22:44:29;6.20;;;4.00;;
12232;SDS011;6179;51.748;8.728;2023-05-07T22:50:29;6.40;;;4.50;;
12232;SDS011;6179;51.748;8.728;2023-05-07T22:56:30;4.53;;;2.87;;
12232;SDS011;6179;51.748;8.728;2023-05-07T23:02:31;5.33;;;2.87;;
12232;SDS011;6179;51.748;8.728;2023-05-07T23:08:31;4.40;;;3.50;;
12232;SDS011;6179;51.748;8.728;2023-05-07T23:14:32;4.53;;;3.53;;
12232;SDS011;6179;51.748;8.728;2023-05-07T23:20:33;5.03;;;2.87;;
12232;SDS011;6179;51.748;8.728;2023-05-07T23:26:33;6.20;;;3.60;;
12232;SDS011;6179;51.748;8.728;2023-05-07T23:32:34;10.50;;;3.63;;
12232;SDS011;6179;51.748;8.728;2023-05-07T23:38:35;5.50;;;3.30;;
12232;SDS011;6179;51.748;8.728;2023-05-07T23:44:35;3.10;;;2.80;;
12232;SDS011;6179;51.748;8.728;2023-05-07T23:50:36;6.00;;;3.53;;
12232;SDS011;6179;51.748;8.728;2023-05-07T23:56:37;7.47;;;3.13;;
